Time;durP1;ratioP1;P1;durP2;ratioP2;P2;SDS_P1;SDS_P2;PMS_P1;PMS_P2;Temp;Humidity;BMP_temperature;BMP_pressure;BME280_temperature;BME280_humidity;BME280_pressure;Samples;Min_cycle;Max_cycle;Signal;HPM_P1;HPM_P2
2023/12/10 00:00:49;;;;;;;;;;;17.60;47.60;;;;;;1581607;74;703;-74
2023/12/10 00:02:50;;;;;;;;;;;17.60;47.60;;;;;;1578565;73;595;-73
2023/12/10 00:04:52;;;;;;;;;;;17.70;47.80;;;;;;1588797;73;1121;-73
2023/12/10 00:06:54;;;;;;;;;;;17.70;47.80;;;;;;1588366;74;1937;-74
2023/12/10 00:08:58;;;;;;;;;;;17.70;47.80;;;;;;1583847;74;647;-71
2023/12/10 00:10:59;;;;;;;;;;;17.70;47.70;;;;;;1584580;74;783;-73
2023/12/10 00:13:01;;;;;;;;;;;17.70;47.80;;;;;;1589834;74;703;-72
2023/12/10 00:15:03;;;;;;;;;;;17.60;47.70;;;;;;1579202;74;1109;-71
2023/12/10 00:17:05;;;;;;;;;;;17.70;47.80;;;;;;1582470;74;1583;-72
2023/12/10 00:19:07;;;;;;;;;;;17.70;47.80;;;;;;1589373;73;769;-74
2023/12/10 00:21:10;;;;;;;;;;;17.70;47.80;;;;;;1581759;74;721;-73
2023/12/10 00:23:12;;;;;;;;;;;17.70;47.80;;;;;;1572360;73;2005;-74
2023/12/10 00:25:14;;;;;;;;;;;17.70;47.80;;;;;;1582965;73;1938;-72
2023/12/10 00:27:16;;;;;;;;;;;17.70;47.80;;;;;;1579763;74;741;-72
2023/12/10 00:29:18;;;;;;;;;;;17.70;47.80;;;;;;1583485;74;683;-73
2023/12/10 00:31:20;;;;;;;;;;;17.70;47.80;;;;;;1583137;73;741;-75
2023/12/10 00:33:22;;;;;;;;;;;17.70;47.80;;;;;;1583495;73;785;-71
2023/12/10 00:35:24;;;;;;;;;;;17.70;47.80;;;;;;1576521;73;1142;-74
2023/12/10 00:37:26;;;;;;;;;;;17.70;47.80;;;;;;1586509;74;698;-72
2023/12/10 00:39:28;;;;;;;;;;;17.60;47.70;;;;;;1584382;74;710;-71
2023/12/10 00:41:30;;;;;;;;;;;17.60;47.70;;;;;;1585557;73;793;-71
2023/12/10 00:43:32;;;;;;;;;;;17.60;47.60;;;;;;1582366;73;744;-74
2023/12/10 00:45:34;;;;;;;;;;;17.60;47.60;;;;;;1582363;74;1946;-73
2023/12/10 00:47:37;;;;;;;;;;;17.60;47.70;;;;;;1582613;73;700;-73
2023/12/10 00:49:39;;;;;;;;;;;17.70;47.80;;;;;;1577038;74;788;-72
2023/12/10 00:51:41;;;;;;;;;;;17.60;47.70;;;;;;1582982;74;748;-74
2023/12/10 00:53:42;;;;;;;;;;;17.60;47.60;;;;;;1578359;73;654;-72
2023/12/10 00:55:44;;;;;;;;;;;17.60;47.60;;;;;;1581320;74;1159;-72
2023/12/10 00:57:46;;;;;;;;;;;17.60;47.70;;;;;;1587203;74;721;-72
2023/12/10 00:59:48;;;;;;;;;;;17.60;47.70;;;;;;1578949;73;689;-73
2023/12/10 01:01:50;;;;;;;;;;;17.60;47.70;;;;;;1582369;74;730;-72
2023/12/10 01:03:52;;;;;;;;;;;17.60;47.60;;;;;;1579483;73;710;-72
2023/12/10 01:05:54;;;;;;;;;;;17.60;47.60;;;;;;1590431;74;1960;-74
2023/12/10 01:07:56;;;;;;;;;;;17.60;47.70;;;;;;1577758;74;712;-71
2023/12/10 01:09:58;;;;;;;;;;;17.60;47.70;;;;;;1578005;74;681;-72
2023/12/10 01:11:59;;;;;;;;;;;17.60;47.60;;;;;;1578973;73;1370;-70
2023/12/10 01:14:03;;;;;;;;;;;17.60;47.60;;;;;;1579074;73;622;-71
2023/12/10 01:16:05;;;;;;;;;;;17.60;47.70;;;;;;1580666;73;619;-74
2023/12/10 01:18:07;;;;;;;;;;;17.60;47.60;;;;;;1578932;74;698;-75
2023/12/10 01:20:09;;;;;;;;;;;17.60;47.60;;;;;;1584230;73;764;-71
2023/12/10 01:22:11;;;;;;;;;;;17.60;47.70;;;;;;1585370;74;777;-71
2023/12/10 01:24:19;;;;;;;;;;;18.00;47.80;;;;;;1574969;73;1126;-71
2023/12/10 01:26:21;;;;;;;;;;;17.70;47.70;;;;;;1589017;74;1931;-73
2023/12/10 01:28:23;;;;;;;;;;;17.60;47.70;;;;;;1576900;74;699;-72
2023/12/10 01:30:25;;;;;;;;;;;17.70;47.70;;;;;;1587021;73;726;-72
2023/12/10 01:32:27;;;;;;;;;;;17.60;47.70;;;;;;1582010;73;794;-72
2023/12/10 01:34:29;;;;;;;;;;;17.60;47.60;;;;;;1583093;74;1153;-72
2023/12/10 01:36:30;;;;;;;;;;;17.60;47.60;;;;;;1579409;74;646;-73
2023/12/10 01:38:32;;;;;;;;;;;17.70;47.70;;;;;;1585352;74;672;-74
2023/12/10 01:40:35;;;;;;;;;;;17.70;47.70;;;;;;1585637;74;722;-74
2023/12/10 01:42:36;;;;;;;;;;;17.70;47.70;;;;;;1574909;74;752;-73
2023/12/10 01:44:38;;;;;;;;;;;17.70;47.80;;;;;;1585876;74;1136;-74
2023/12/10 01:46:40;;;;;;;;;;;17.60;47.60;;;;;;1579111;73;1939;-73
2023/12/10 01:48:42;;;;;;;;;;;17.70;47.80;;;;;;1579566;74;828;-72
2023/12/10 01:50:44;;;;;;;;;;;17.70;47.70;;;;;;1587958;73;765;-74
2023/12/10 01:52:50;;;;;;;;;;;17.60;47.60;;;;;;1583192;74;684;-73
2023/12/10 01:54:49;;;;;;;;;;;17.60;47.70;;;;;;1577598;73;1508;-74
2023/12/10 01:56:51;;;;;;;;;;;17.70;47.80;;;;;;1585279;74;690;-73
2023/12/10 01:58:53;;;;;;;;;;;17.70;47.80;;;;;;1576359;73;724;-72
2023/12/10 02:00:55;;;;;;;;;;;17.70;47.70;;;;;;1582424;74;806;-72
2023/12/10 02:02:57;;;;;;;;;;;17.70;47.70;;;;;;1574826;73;749;-72
2023/12/10 02:04:59;;;;;;;;;;;17.70;47.70;;;;;;1577348;73;1134;-73
2023/12/10 02:07:00;;;;;;;;;;;17.70;47.70;;;;;;1590196;74;1926;-72
2023/12/10 02:09:09;;;;;;;;;;;17.60;47.60;;;;;;1575764;74;791;-72
2023/12/10 02:11:06;;;;;;;;;;;17.70;47.70;;;;;;1581562;74;996;-72
2023/12/10 02:13:08;;;;;;;;;;;17.70;47.70;;;;;;1586126;73;1452;-74
2023/12/10 02:15:19;;;;;;;;;;;17.70;47.70;;;;;;1574324;74;1197;-72
2023/12/10 02:17:21;;;;;;;;;;;17.70;47.70;;;;;;1581345;73;747;-72
2023/12/10 02:19:23;;;;;;;;;;;17.60;47.60;;;;;;1583300;73;743;-71
2023/12/10 02:21:25;;;;;;;;;;;17.70;47.70;;;;;;1577247;73;747;-71
2023/12/10 02:23:38;;;;;;;;;;;17.70;47.60;;;;;;1588963;74;609;-74
2023/12/10 02:25:40;;;;;;;;;;;17.80;47.60;;;;;;1574204;74;1106;-73
2023/12/10 02:27:42;;;;;;;;;;;17.70;47.60;;;;;;1580435;74;1950;-72
2023/12/10 02:29:44;;;;;;;;;;;17.70;47.60;;;;;;1587753;73;731;-73
2023/12/10 02:31:46;;;;;;;;;;;17.70;47.60;;;;;;1587559;74;821;-73
2023/12/10 02:33:47;;;;;;;;;;;17.70;47.60;;;;;;1580945;73;715;-71
2023/12/10 02:35:49;;;;;;;;;;;17.70;47.60;;;;;;1587987;73;1163;-72
2023/12/10 02:37:51;;;;;;;;;;;17.70;47.60;;;;;;1583037;73;721;-72
2023/12/10 02:39:53;;;;;;;;;;;17.70;47.60;;;;;;1592085;74;681;-73
2023/12/10 02:41:55;;;;;;;;;;;17.70;47.60;;;;;;1585883;74;753;-71
2023/12/10 02:43:57;;;;;;;;;;;17.70;47.60;;;;;;1569395;74;641;-73
2023/12/10 02:45:59;;;;;;;;;;;17.70;47.60;;;;;;1585569;74;1931;-72
2023/12/10 02:48:01;;;;;;;;;;;17.70;47.60;;;;;;1585446;73;672;-71
2023/12/10 02:50:03;;;;;;;;;;;17.70;47.60;;;;;;1582612;74;600;-73
2023/12/10 02:52:05;;;;;;;;;;;17.70;47.60;;;;;;1578262;74;924;-73
2023/12/10 02:54:07;;;;;;;;;;;17.70;47.60;;;;;;1582591;74;1165;-73
2023/12/10 02:56:09;;;;;;;;;;;17.70;47.60;;;;;;1578420;74;723;-73
2023/12/10 02:58:11;;;;;;;;;;;17.70;47.60;;;;;;1579405;74;696;-72
2023/12/10 03:00:15;;;;;;;;;;;17.70;47.60;;;;;;1586594;74;699;-71
2023/12/10 03:02:16;;;;;;;;;;;17.70;47.60;;;;;;1575052;74;1625;-73
2023/12/10 03:04:18;;;;;;;;;;;17.70;47.60;;;;;;1585976;74;1132;-74
2023/12/10 03:06:20;;;;;;;;;;;17.80;47.60;;;;;;1576933;74;1930;-73
2023/12/10 03:08:22;;;;;;;;;;;17.70;47.60;;;;;;1574959;74;830;-72
2023/12/10 03:10:24;;;;;;;;;;;17.70;47.60;;;;;;1579388;74;804;-74
2023/12/10 03:12:26;;;;;;;;;;;17.70;47.50;;;;;;1577192;74;1440;-72
2023/12/10 03:14:28;;;;;;;;;;;17.70;47.50;;;;;;1576380;73;1146;-72
2023/12/10 03:16:30;;;;;;;;;;;17.80;47.60;;;;;;1586871;73;656;-73
2023/12/10 03:18:31;;;;;;;;;;;17.70;47.50;;;;;;1588773;73;739;-72
2023/12/10 03:20:33;;;;;;;;;;;17.70;47.50;;;;;;1588892;74;824;-75
2023/12/10 03:22:35;;;;;;;;;;;17.70;47.60;;;;;;1582927;73;738;-73
2023/12/10 03:24:37;;;;;;;;;;;17.60;47.50;;;;;;1585362;74;1148;-71
2023/12/10 03:26:39;;;;;;;;;;;17.70;47.50;;;;;;1588120;74;1942;-71
2023/12/10 03:28:41;;;;;;;;;;;17.70;47.40;;;;;;1585890;73;808;-71
2023/12/10 03:30:43;;;;;;;;;;;17.80;47.50;;;;;;1583710;73;725;-73
2023/12/10 03:32:45;;;;;;;;;;;17.70;47.50;;;;;;1579224;73;837;-73
2023/12/10 03:34:46;;;;;;;;;;;17.70;47.50;;;;;;1586328;74;1161;-72
2023/12/10 03:36:48;;;;;;;;;;;17.70;47.50;;;;;;1579494;73;732;-74
2023/12/10 03:38:50;;;;;;;;;;;17.70;47.50;;;;;;1586266;74;740;-72
2023/12/10 03:40:52;;;;;;;;;;;17.70;47.50;;;;;;1583041;73;1020;-72
2023/12/10 03:42:54;;;;;;;;;;;17.70;47.50;;;;;;1587733;73;720;-73
2023/12/10 03:44:58;;;;;;;;;;;17.70;47.40;;;;;;1582509;74;1089;-74
2023/12/10 03:47:03;;;;;;;;;;;17.70;47.50;;;;;;1578170;73;1933;-72
2023/12/10 03:49:05;;;;;;;;;;;17.70;47.50;;;;;;1584724;74;711;-72
2023/12/10 03:51:07;;;;;;;;;;;17.80;47.50;;;;;;1581470;73;737;-73
2023/12/10 03:53:08;;;;;;;;;;;17.70;47.50;;;;;;1581167;74;737;-73
2023/12/10 03:55:10;;;;;;;;;;;17.70;47.50;;;;;;1585693;74;1180;-72
2023/12/10 03:57:12;;;;;;;;;;;17.70;47.50;;;;;;1584030;73;681;-73
2023/12/10 03:59:14;;;;;;;;;;;17.70;47.50;;;;;;1589046;74;692;-73
2023/12/10 04:01:17;;;;;;;;;;;17.70;47.50;;;;;;1581946;73;708;-72
2023/12/10 04:03:18;;;;;;;;;;;18.00;47.60;;;;;;1583285;73;754;-73
2023/12/10 04:05:20;;;;;;;;;;;17.70;47.50;;;;;;1584086;74;1132;-75
2023/12/10 04:07:22;;;;;;;;;;;17.70;47.50;;;;;;1586101;73;1929;-75
2023/12/10 04:09:24;;;;;;;;;;;17.70;47.40;;;;;;1578038;74;1635;-73
2023/12/10 04:11:26;;;;;;;;;;;17.70;47.40;;;;;;1579459;73;921;-74
2023/12/10 04:13:28;;;;;;;;;;;17.70;47.50;;;;;;1585568;73;779;-73
2023/12/10 04:15:30;;;;;;;;;;;17.70;47.50;;;;;;1575995;73;1144;-73
2023/12/10 04:17:32;;;;;;;;;;;17.70;47.50;;;;;;1581836;74;658;-73
2023/12/10 04:19:34;;;;;;;;;;;17.70;47.50;;;;;;1582090;73;689;-72
2023/12/10 04:21:35;;;;;;;;;;;17.70;47.50;;;;;;1581313;73;746;-75
2023/12/10 04:23:38;;;;;;;;;;;17.70;47.40;;;;;;1581398;74;941;-74
2023/12/10 04:25:40;;;;;;;;;;;17.70;47.50;;;;;;1574644;73;1163;-71
2023/12/10 04:27:42;;;;;;;;;;;17.70;47.50;;;;;;1584584;73;1959;-72
2023/12/10 04:29:44;;;;;;;;;;;17.70;47.50;;;;;;1581239;73;769;-73
2023/12/10 04:31:46;;;;;;;;;;;17.60;47.40;;;;;;1589395;73;734;-72
2023/12/10 04:33:48;;;;;;;;;;;17.70;47.50;;;;;;1593379;74;775;-73
2023/12/10 04:35:49;;;;;;;;;;;17.70;47.50;;;;;;1583252;74;1364;-73
2023/12/10 04:37:51;;;;;;;;;;;17.70;47.60;;;;;;1577824;74;744;-72
2023/12/10 04:39:53;;;;;;;;;;;17.60;47.30;;;;;;1591098;73;742;-75
2023/12/10 04:41:55;;;;;;;;;;;17.70;47.60;;;;;;1587047;73;722;-72
2023/12/10 04:43:57;;;;;;;;;;;17.60;47.40;;;;;;1582236;74;710;-73
2023/12/10 04:45:59;;;;;;;;;;;17.60;47.30;;;;;;1589357;74;1147;-73
2023/12/10 04:48:01;;;;;;;;;;;17.70;47.50;;;;;;1585303;73;1937;-73
2023/12/10 04:50:03;;;;;;;;;;;17.70;47.40;;;;;;1581528;73;712;-73
2023/12/10 04:52:05;;;;;;;;;;;17.60;47.40;;;;;;1576747;74;669;-73
2023/12/10 04:54:07;;;;;;;;;;;17.70;47.40;;;;;;1582371;73;1149;-71
2023/12/10 04:56:10;;;;;;;;;;;17.70;47.50;;;;;;1574513;74;788;-74
2023/12/10 04:58:11;;;;;;;;;;;17.70;47.50;;;;;;1578017;73;737;-72
2023/12/10 05:00:13;;;;;;;;;;;17.70;47.40;;;;;;1584369;74;820;-71
2023/12/10 05:02:15;;;;;;;;;;;17.70;47.40;;;;;;1585643;73;823;-73
2023/12/10 05:04:18;;;;;;;;;;;17.70;47.40;;;;;;1583206;73;1534;-73
2023/12/10 05:06:19;;;;;;;;;;;17.70;47.40;;;;;;1575821;73;859;-72
2023/12/10 05:08:21;;;;;;;;;;;17.70;47.40;;;;;;1591827;73;1944;-73
2023/12/10 05:10:23;;;;;;;;;;;17.60;47.30;;;;;;1573723;74;721;-73
2023/12/10 05:12:25;;;;;;;;;;;17.70;47.40;;;;;;1582245;73;737;-75
2023/12/10 05:14:27;;;;;;;;;;;17.70;47.40;;;;;;1569765;74;1154;-74
2023/12/10 05:16:29;;;;;;;;;;;17.70;47.50;;;;;;1582798;73;743;-73
2023/12/10 05:18:31;;;;;;;;;;;17.70;47.40;;;;;;1573520;74;784;-72
2023/12/10 05:20:33;;;;;;;;;;;17.60;47.30;;;;;;1582338;74;680;-73
2023/12/10 05:22:35;;;;;;;;;;;17.70;47.40;;;;;;1575048;74;666;-72
2023/12/10 05:24:36;;;;;;;;;;;17.70;47.40;;;;;;1578838;74;1097;-70
2023/12/10 05:26:38;;;;;;;;;;;17.60;47.30;;;;;;1572395;73;724;-71
2023/12/10 05:28:40;;;;;;;;;;;17.70;47.40;;;;;;1574094;74;1954;-73
2023/12/10 05:30:42;;;;;;;;;;;17.70;47.40;;;;;;1585379;74;1059;-74
2023/12/10 05:32:44;;;;;;;;;;;17.70;47.50;;;;;;1592774;73;739;-75
2023/12/10 05:34:46;;;;;;;;;;;17.70;47.50;;;;;;1582148;74;1163;-71
2023/12/10 05:36:48;;;;;;;;;;;17.70;47.40;;;;;;1573547;74;731;-71
2023/12/10 05:38:50;;;;;;;;;;;17.70;47.50;;;;;;1583191;73;732;-73
2023/12/10 05:40:51;;;;;;;;;;;17.70;47.40;;;;;;1582364;73;733;-73
2023/12/10 05:42:54;;;;;;;;;;;17.70;47.40;;;;;;1580732;73;699;-72
2023/12/10 05:44:56;;;;;;;;;;;17.70;47.40;;;;;;1583595;73;1159;-75
2023/12/10 05:46:58;;;;;;;;;;;17.70;47.40;;;;;;1580261;73;745;-73
2023/12/10 05:49:00;;;;;;;;;;;17.70;47.40;;;;;;1585971;73;725;-72
2023/12/10 05:51:03;;;;;;;;;;;17.70;47.40;;;;;;1584100;74;594;-71
2023/12/10 05:53:05;;;;;;;;;;;17.70;47.40;;;;;;1584548;73;746;-73
2023/12/10 05:55:07;;;;;;;;;;;17.70;47.40;;;;;;1581556;74;1176;-73
2023/12/10 05:57:09;;;;;;;;;;;17.70;47.40;;;;;;1585426;74;1078;-71
2023/12/10 05:59:11;;;;;;;;;;;17.70;47.30;;;;;;1582382;74;796;-72
2023/12/10 06:01:13;;;;;;;;;;;17.70;47.40;;;;;;1587098;73;1475;-73
2023/12/10 06:03:15;;;;;;;;;;;17.70;47.30;;;;;;1581686;74;586;-73
2023/12/10 06:05:17;;;;;;;;;;;17.80;47.30;;;;;;1588684;73;1144;-74
2023/12/10 06:07:19;;;;;;;;;;;17.70;47.30;;;;;;1591564;74;1939;-73
2023/12/10 06:09:21;;;;;;;;;;;17.70;47.30;;;;;;1578595;73;717;-71
2023/12/10 06:11:23;;;;;;;;;;;17.70;47.30;;;;;;1577057;74;606;-72
2023/12/10 06:13:27;;;;;;;;;;;17.70;47.30;;;;;;1581407;73;693;-74
2023/12/10 06:15:28;;;;;;;;;;;17.70;47.30;;;;;;1590447;73;1113;-74
2023/12/10 06:17:30;;;;;;;;;;;17.70;47.30;;;;;;1583624;73;727;-73
2023/12/10 06:19:32;;;;;;;;;;;17.70;47.30;;;;;;1592082;73;729;-74
2023/12/10 06:21:34;;;;;;;;;;;17.70;47.30;;;;;;1580490;73;729;-73
2023/12/10 06:23:36;;;;;;;;;;;17.70;47.30;;;;;;1583896;73;729;-73
2023/12/10 06:25:38;;;;;;;;;;;17.70;47.30;;;;;;1580210;74;1141;-73
2023/12/10 06:27:40;;;;;;;;;;;17.70;47.20;;;;;;1587310;74;1929;-71
2023/12/10 06:29:42;;;;;;;;;;;17.70;47.30;;;;;;1573338;73;698;-74
2023/12/10 06:31:44;;;;;;;;;;;17.70;47.20;;;;;;1575815;74;729;-72
2023/12/10 06:33:45;;;;;;;;;;;17.70;47.20;;;;;;1581043;73;815;-74
2023/12/10 06:35:47;;;;;;;;;;;17.70;47.20;;;;;;1591942;73;1262;-73
2023/12/10 06:37:49;;;;;;;;;;;17.70;47.20;;;;;;1580199;73;709;-73
2023/12/10 06:39:51;;;;;;;;;;;17.70;47.20;;;;;;1581779;73;701;-73
2023/12/10 06:41:53;;;;;;;;;;;17.70;47.20;;;;;;1578286;73;674;-74
2023/12/10 06:43:55;;;;;;;;;;;17.70;47.10;;;;;;1584875;74;751;-74
2023/12/10 06:45:58;;;;;;;;;;;17.70;47.20;;;;;;1583213;74;1099;-72
2023/12/10 06:48:00;;;;;;;;;;;17.70;47.20;;;;;;1586672;73;1919;-72
2023/12/10 06:50:03;;;;;;;;;;;17.70;47.20;;;;;;1587729;74;778;-73
2023/12/10 06:52:05;;;;;;;;;;;17.70;47.20;;;;;;1580267;73;714;-73
2023/12/10 06:54:07;;;;;;;;;;;17.70;47.10;;;;;;1579697;74;1074;-72
2023/12/10 06:56:09;;;;;;;;;;;17.70;47.20;;;;;;1582747;74;721;-72
2023/12/10 06:58:11;;;;;;;;;;;17.70;47.20;;;;;;1585467;74;1584;-73
2023/12/10 07:00:13;;;;;;;;;;;17.70;47.20;;;;;;1581352;74;719;-74
2023/12/10 07:02:15;;;;;;;;;;;17.70;47.20;;;;;;1576602;74;699;-74
2023/12/10 07:04:17;;;;;;;;;;;17.70;47.20;;;;;;1582232;73;1182;-72
2023/12/10 07:06:19;;;;;;;;;;;17.70;47.20;;;;;;1584085;74;652;-74
2023/12/10 07:08:20;;;;;;;;;;;17.70;47.20;;;;;;1586504;73;1936;-74
2023/12/10 07:10:22;;;;;;;;;;;17.70;47.20;;;;;;1580746;73;672;-72
2023/12/10 07:12:24;;;;;;;;;;;17.70;47.30;;;;;;1591487;74;680;-74
2023/12/10 07:14:26;;;;;;;;;;;17.70;47.20;;;;;;1584928;73;1105;-73
2023/12/10 07:16:28;;;;;;;;;;;17.70;47.30;;;;;;1582798;73;734;-73
2023/12/10 07:18:30;;;;;;;;;;;17.70;47.20;;;;;;1581139;74;712;-73
2023/12/10 07:20:32;;;;;;;;;;;17.70;47.30;;;;;;1583808;73;682;-73
2023/12/10 07:22:34;;;;;;;;;;;17.70;47.30;;;;;;1590746;74;793;-74
2023/12/10 07:24:37;;;;;;;;;;;17.70;47.30;;;;;;1583208;73;1113;-72
2023/12/10 07:26:39;;;;;;;;;;;17.70;47.30;;;;;;1582872;74;774;-71
2023/12/10 07:28:41;;;;;;;;;;;17.70;47.30;;;;;;1586135;74;1942;-72
2023/12/10 07:30:43;;;;;;;;;;;17.60;47.10;;;;;;1586401;74;708;-71
2023/12/10 07:32:45;;;;;;;;;;;17.70;47.30;;;;;;1580768;73;803;-72
2023/12/10 07:34:47;;;;;;;;;;;17.70;47.30;;;;;;1582851;74;1149;-73
2023/12/10 07:36:49;;;;;;;;;;;17.70;47.20;;;;;;1578503;74;620;-74
2023/12/10 07:38:51;;;;;;;;;;;17.60;47.20;;;;;;1585347;74;731;-72
2023/12/10 07:40:53;;;;;;;;;;;17.70;47.30;;;;;;1589455;74;767;-74
2023/12/10 07:42:55;;;;;;;;;;;17.70;47.30;;;;;;1587323;73;639;-75
2023/12/10 07:44:57;;;;;;;;;;;17.70;47.20;;;;;;1574061;73;1134;-75
2023/12/10 07:46:59;;;;;;;;;;;17.70;47.30;;;;;;1589920;73;715;-72
2023/12/10 07:49:01;;;;;;;;;;;17.70;47.20;;;;;;1583817;73;1950;-73
2023/12/10 07:51:03;;;;;;;;;;;17.60;47.10;;;;;;1585437;74;798;-73
2023/12/10 07:53:04;;;;;;;;;;;17.70;47.30;;;;;;1581718;73;1462;-74
2023/12/10 07:55:07;;;;;;;;;;;17.70;47.20;;;;;;1585077;73;1139;-73
2023/12/10 07:57:09;;;;;;;;;;;17.60;47.20;;;;;;1577127;74;660;-73
2023/12/10 07:59:10;;;;;;;;;;;17.60;47.20;;;;;;1577594;73;734;-73
2023/12/10 08:01:12;;;;;;;;;;;17.70;47.20;;;;;;1586140;74;817;-74
2023/12/10 08:03:14;;;;;;;;;;;17.60;47.10;;;;;;1580870;74;825;-75
2023/12/10 08:05:16;;;;;;;;;;;17.70;47.20;;;;;;1583068;73;1189;-72
2023/12/10 08:07:18;;;;;;;;;;;17.60;47.10;;;;;;1579367;74;734;-72
2023/12/10 08:09:21;;;;;;;;;;;17.60;47.10;;;;;;1574374;74;1970;-72
2023/12/10 08:11:23;;;;;;;;;;;17.70;47.30;;;;;;1572519;73;775;-72
2023/12/10 08:13:25;;;;;;;;;;;17.70;47.30;;;;;;1581976;74;785;-73
2023/12/10 08:15:27;;;;;;;;;;;17.60;47.20;;;;;;1578019;73;1136;-75
2023/12/10 08:17:29;;;;;;;;;;;17.70;47.30;;;;;;1583223;73;725;-74
2023/12/10 08:19:31;;;;;;;;;;;17.70;47.30;;;;;;1588582;74;777;-73
2023/12/10 08:21:32;;;;;;;;;;;17.70;47.30;;;;;;1579518;73;761;-73
2023/12/10 08:23:34;;;;;;;;;;;17.70;47.30;;;;;;1575501;74;707;-74
2023/12/10 08:25:36;;;;;;;;;;;17.70;47.30;;;;;;1580432;74;1141;-73
2023/12/10 08:27:38;;;;;;;;;;;17.70;47.30;;;;;;1576820;74;838;-74
2023/12/10 08:29:40;;;;;;;;;;;17.70;47.30;;;;;;1583387;74;1937;-75
2023/12/10 08:31:42;;;;;;;;;;;17.70;47.30;;;;;;1582893;73;730;-73
2023/12/10 08:33:45;;;;;;;;;;;17.70;47.30;;;;;;1580835;73;753;-73
2023/12/10 08:35:47;;;;;;;;;;;17.70;47.30;;;;;;1578499;73;1186;-73
2023/12/10 08:37:49;;;;;;;;;;;17.70;47.30;;;;;;1581057;74;610;-73
2023/12/10 08:39:51;;;;;;;;;;;17.70;47.30;;;;;;1580676;73;642;-74
2023/12/10 08:41:53;;;;;;;;;;;17.80;47.30;;;;;;1578278;74;579;-72
2023/12/10 08:43:55;;;;;;;;;;;17.70;47.30;;;;;;1587809;73;727;-75
2023/12/10 08:45:57;;;;;;;;;;;17.80;47.20;;;;;;1581076;73;1129;-73
2023/12/10 08:47:59;;;;;;;;;;;17.80;47.20;;;;;;1582131;73;808;-75
2023/12/10 08:50:02;;;;;;;;;;;17.80;47.20;;;;;;1580932;74;1942;-72
2023/12/10 08:52:05;;;;;;;;;;;17.70;47.20;;;;;;1574769;73;752;-73
2023/12/10 08:54:07;;;;;;;;;;;17.70;47.20;;;;;;1575097;74;780;-73
2023/12/10 08:56:09;;;;;;;;;;;17.70;47.10;;;;;;1584204;74;739;-74
2023/12/10 08:58:10;;;;;;;;;;;17.80;47.20;;;;;;1583823;74;717;-73
2023/12/10 09:00:13;;;;;;;;;;;17.80;47.10;;;;;;1584504;73;679;-74
2023/12/10 09:02:15;;;;;;;;;;;17.80;47.10;;;;;;1580503;74;749;-73
2023/12/10 09:04:16;;;;;;;;;;;17.80;47.10;;;;;;1583248;73;1179;-73
2023/12/10 09:06:18;;;;;;;;;;;17.80;47.10;;;;;;1586526;73;803;-73
2023/12/10 09:08:20;;;;;;;;;;;17.70;47.10;;;;;;1583426;73;1930;-73
2023/12/10 09:10:22;;;;;;;;;;;17.80;47.20;;;;;;1586244;74;742;-73
2023/12/10 09:12:24;;;;;;;;;;;17.80;47.10;;;;;;1575188;74;733;-73
2023/12/10 09:14:26;;;;;;;;;;;17.80;47.20;;;;;;1584435;73;1165;-72
2023/12/10 09:16:28;;;;;;;;;;;17.80;47.10;;;;;;1578547;74;722;-72
2023/12/10 09:18:30;;;;;;;;;;;17.80;47.10;;;;;;1570707;73;727;-73
2023/12/10 09:20:31;;;;;;;;;;;17.80;47.10;;;;;;1575825;73;672;-72
2023/12/10 09:22:33;;;;;;;;;;;17.80;47.10;;;;;;1570901;74;729;-71
2023/12/10 09:24:35;;;;;;;;;;;17.80;47.10;;;;;;1575968;73;1222;-72
2023/12/10 09:26:37;;;;;;;;;;;17.80;47.10;;;;;;1569978;73;727;-73
2023/12/10 09:28:39;;;;;;;;;;;17.80;47.10;;;;;;1579255;74;1950;-73
2023/12/10 09:30:42;;;;;;;;;;;17.80;47.10;;;;;;1579630;73;917;-73
2023/12/10 09:32:44;;;;;;;;;;;17.80;47.10;;;;;;1582843;74;600;-73
2023/12/10 09:34:46;;;;;;;;;;;17.80;47.10;;;;;;1575318;74;1103;-72
2023/12/10 09:36:48;;;;;;;;;;;17.80;47.10;;;;;;1578339;73;725;-75
2023/12/10 09:38:50;;;;;;;;;;;17.70;47.10;;;;;;1585828;73;763;-74
2023/12/10 09:40:52;;;;;;;;;;;17.80;47.10;;;;;;1579173;73;691;-73
2023/12/10 09:42:54;;;;;;;;;;;17.80;47.10;;;;;;1571704;73;664;-73
2023/12/10 09:44:56;;;;;;;;;;;17.80;47.00;;;;;;1579852;74;1164;-73
2023/12/10 09:46:57;;;;;;;;;;;17.80;47.00;;;;;;1587676;73;1537;-73
2023/12/10 09:49:00;;;;;;;;;;;17.80;47.00;;;;;;1578825;73;1948;-74
2023/12/10 09:51:02;;;;;;;;;;;17.80;47.10;;;;;;1573806;73;752;-74
2023/12/10 09:53:04;;;;;;;;;;;17.80;47.00;;;;;;1578532;73;731;-73
2023/12/10 09:55:06;;;;;;;;;;;17.70;47.00;;;;;;1572064;74;1136;-74
2023/12/10 09:57:08;;;;;;;;;;;17.80;47.00;;;;;;1580044;73;717;-75
2023/12/10 09:59:10;;;;;;;;;;;17.70;47.00;;;;;;1580563;73;752;-72
2023/12/10 10:01:12;;;;;;;;;;;17.80;47.00;;;;;;1580348;73;779;-74
2023/12/10 10:03:14;;;;;;;;;;;17.80;47.00;;;;;;1577640;73;735;-72
2023/12/10 10:05:16;;;;;;;;;;;17.80;47.00;;;;;;1582222;74;1168;-73
2023/12/10 10:07:18;;;;;;;;;;;17.80;47.00;;;;;;1581559;73;713;-72
2023/12/10 10:09:19;;;;;;;;;;;17.80;47.00;;;;;;1586489;73;1941;-73
2023/12/10 10:11:22;;;;;;;;;;;17.80;47.00;;;;;;1576645;74;780;-74
2023/12/10 10:13:24;;;;;;;;;;;17.80;47.00;;;;;;1584232;73;658;-73
2023/12/10 10:15:31;;;;;;;;;;;17.80;46.90;;;;;;1586161;74;1187;-74
2023/12/10 10:17:30;;;;;;;;;;;17.80;47.00;;;;;;1578132;74;958;-73
2023/12/10 10:19:32;;;;;;;;;;;17.80;47.00;;;;;;1581793;74;710;-73
2023/12/10 10:21:34;;;;;;;;;;;17.70;47.00;;;;;;1579976;74;793;-73
2023/12/10 10:23:36;;;;;;;;;;;17.80;47.10;;;;;;1585740;74;741;-73
2023/12/10 10:25:39;;;;;;;;;;;17.80;47.00;;;;;;1578033;74;1204;-73
2023/12/10 10:27:41;;;;;;;;;;;17.80;46.80;;;;;;1573597;74;737;-73
2023/12/10 10:29:43;;;;;;;;;;;17.80;46.90;;;;;;1585402;74;1931;-71
2023/12/10 10:31:45;;;;;;;;;;;17.70;46.90;;;;;;1573063;74;816;-73
2023/12/10 10:33:47;;;;;;;;;;;17.70;47.00;;;;;;1579922;74;822;-73
2023/12/10 10:35:49;;;;;;;;;;;17.80;47.00;;;;;;1584724;74;1148;-73
2023/12/10 10:37:51;;;;;;;;;;;17.70;46.90;;;;;;1545703;75;722;-73
2023/12/10 10:39:53;;;;;;;;;;;17.80;47.00;;;;;;1577992;74;674;-72
2023/12/10 10:41:55;;;;;;;;;;;17.70;46.90;;;;;;1576787;73;1555;-75
2023/12/10 10:43:58;;;;;;;;;;;17.80;46.90;;;;;;1578614;74;637;-73
2023/12/10 10:46:00;;;;;;;;;;;17.80;46.90;;;;;;1584533;73;1148;-74
2023/12/10 10:48:02;;;;;;;;;;;17.80;46.90;;;;;;1583968;74;796;-72
2023/12/10 10:50:05;;;;;;;;;;;17.80;46.90;;;;;;1575429;74;1930;-73
2023/12/10 10:52:08;;;;;;;;;;;17.80;46.90;;;;;;1583828;73;708;-74
2023/12/10 10:54:10;;;;;;;;;;;17.80;46.90;;;;;;1582274;74;1152;-73
2023/12/10 10:56:12;;;;;;;;;;;17.80;46.90;;;;;;1583023;73;739;-74
2023/12/10 10:58:24;;;;;;;;;;;17.70;46.90;;;;;;1579533;73;692;-73
2023/12/10 11:00:28;;;;;;;;;;;17.70;46.90;;;;;;1583489;74;694;-75
2023/12/10 11:02:30;;;;;;;;;;;17.80;46.80;;;;;;1572580;74;705;-73
2023/12/10 11:04:34;;;;;;;;;;;17.80;46.80;;;;;;1562313;75;1184;-73
2023/12/10 11:06:36;;;;;;;;;;;17.70;46.80;;;;;;1580337;74;714;-72
2023/12/10 11:08:39;;;;;;;;;;;17.80;46.90;;;;;;1574895;73;726;-73
2023/12/10 11:10:45;;;;;;;;;;;17.70;46.80;;;;;;1582411;73;1929;-73
2023/12/10 11:12:48;;;;;;;;;;;17.80;46.80;;;;;;1586273;74;749;-73
2023/12/10 11:14:52;;;;;;;;;;;17.80;46.90;;;;;;1574436;73;1168;-75
2023/12/10 11:16:55;;;;;;;;;;;17.80;46.80;;;;;;1587463;74;738;-73
2023/12/10 11:18:57;;;;;;;;;;;17.80;46.90;;;;;;1587324;74;1090;-73
2023/12/10 11:20:59;;;;;;;;;;;17.80;46.90;;;;;;1572667;74;760;-73
2023/12/10 11:23:02;;;;;;;;;;;17.80;46.80;;;;;;1581231;73;741;-74
2023/12/10 11:25:04;;;;;;;;;;;17.70;46.80;;;;;;1571256;73;1151;-74
2023/12/10 11:27:07;;;;;;;;;;;17.70;46.90;;;;;;1583233;73;738;-75
2023/12/10 11:29:09;;;;;;;;;;;17.70;46.90;;;;;;1576656;74;1934;-73
2023/12/10 11:31:12;;;;;;;;;;;17.80;46.90;;;;;;1588349;74;840;-73
2023/12/10 11:33:14;;;;;;;;;;;17.80;46.90;;;;;;1586518;73;621;-72
2023/12/10 11:35:16;;;;;;;;;;;17.80;46.90;;;;;;1588055;73;1117;-74
2023/12/10 11:37:18;;;;;;;;;;;17.80;46.80;;;;;;1572959;74;798;-72
2023/12/10 11:39:20;;;;;;;;;;;17.80;46.90;;;;;;1591919;74;1496;-73
2023/12/10 11:41:23;;;;;;;;;;;17.80;46.80;;;;;;1574843;73;705;-73
2023/12/10 11:43:26;;;;;;;;;;;17.80;46.90;;;;;;1574214;74;718;-73
2023/12/10 11:45:27;;;;;;;;;;;17.80;46.90;;;;;;1587276;73;1152;-74
2023/12/10 11:47:29;;;;;;;;;;;17.80;46.90;;;;;;1581167;73;722;-72
2023/12/10 11:49:33;;;;;;;;;;;17.70;46.80;;;;;;1578770;74;1933;-74
2023/12/10 11:51:38;;;;;;;;;;;17.80;46.90;;;;;;1574889;73;1533;-72
2023/12/10 11:53:38;;;;;;;;;;;17.70;46.90;;;;;;1576335;73;1594;-73
2023/12/10 11:55:40;;;;;;;;;;;17.80;46.80;;;;;;1579727;73;1149;-73
2023/12/10 11:57:45;;;;;;;;;;;17.70;46.90;;;;;;1584810;74;754;-72
2023/12/10 11:59:51;;;;;;;;;;;17.70;46.80;;;;;;1583800;74;801;-74
2023/12/10 12:01:52;;;;;;;;;;;17.80;46.90;;;;;;1573375;73;693;-75
2023/12/10 12:03:54;;;;;;;;;;;17.80;46.90;;;;;;1580992;74;656;-73
2023/12/10 12:05:56;;;;;;;;;;;17.80;46.80;;;;;;1577256;74;1149;-74
2023/12/10 12:07:59;;;;;;;;;;;17.80;46.90;;;;;;1578047;73;738;-73